PATK/TKA METAR and TAF weather

Enter ICAO airport designator
Station Type Date Time Source
PATK METAR 2020/09/19 21:53 UTC NOAA

PATK 192153Z 19011KT 10SM SCT060 12/03 A2975 RMK AO2 SLP077 T01220033


Station Type Date Time Source
PATK Decoded METAR 2020/09/19 21:53 UTC NOAA

TALKEETNA AIRPORT, AK, United States (PATK) 62-19N 150-06W 109M
Sep 19, 2020 - 05:53 PM EDT / 2020.09.19 2153 UTC
Wind: from the S (190 degrees) at 13 MPH (11 KT):0
Visibility: 10 mile(s):0
Sky conditions: partly cloudy
Temperature: 54.0 F (12.2 C)
Dew Point: 37.9 F (3.3 C)
Relative Humidity: 54%
Pressure (altimeter): 29.75 in. Hg (1007 hPa)
ob: PATK 192153Z 19011KT 10SM SCT060 12/03 A2975 RMK AO2 SLP077 T01220033
cycle: 22

Station Type Date Time Source
PATK TAF 2020/09/19 18:22 UTC NOAA

TAF PATK 191720Z 1918/2018 VRB03KT P6SM VCSH FEW030 BKN050 OVC070
FM200900 00000KT 6SM -RA BR OVC025

Example: see airport list